Terminal Aerodrome Forecast
Issued by NWS Topeka, KS

Home | Current Version | Previous Version | Graphics & Text | Print | Product List | Glossary On
Versions: 1 2 3 4 5 6 7 8 9 10 11 12 13 14 15 16 17 18 19 20 21 22
846
FTUS43 KTOP 261129
TAFTOP
TAF
KTOP 261129Z 2612/2712 28003KT 4SM BR MIFG FEW200
      TEMPO 2612/2613 1 1/2SM BR
     FM261500 27007KT P6SM FEW200
     FM262200 32007KT P6SM SCT050=

USA.gov is the U.S. government's official web portal to all federal, state and local government web resources and services.